sensor_id;sensor_type;location;lat;lon;timestamp;P1;durP1;ratioP1;P2;durP2;ratioP2
47053;SDS011;32811;52.382;5.270;2023-04-15T00:01:04;3.92;;;1.95;;
47053;SDS011;32811;52.382;5.270;2023-04-15T00:03:31;7.68;;;2.85;;
47053;SDS011;32811;52.382;5.270;2023-04-15T00:06:00;3.95;;;2.47;;
47053;SDS011;32811;52.382;5.270;2023-04-15T00:08:28;10.50;;;2.10;;
47053;SDS011;32811;52.382;5.270;2023-04-15T00:10:56;15.07;;;2.30;;
47053;SDS011;32811;52.382;5.270;2023-04-15T00:13:28;4.82;;;2.67;;
47053;SDS011;32811;52.382;5.270;2023-04-15T00:15:55;5.90;;;2.60;;
47053;SDS011;32811;52.382;5.270;2023-04-15T00:18:23;4.05;;;2.22;;
47053;SDS011;32811;52.382;5.270;2023-04-15T00:20:50;6.85;;;2.30;;
47053;SDS011;32811;52.382;5.270;2023-04-15T00:23:17;8.63;;;2.65;;
47053;SDS011;32811;52.382;5.270;2023-04-15T00:25:44;4.78;;;2.33;;
47053;SDS011;32811;52.382;5.270;2023-04-15T00:28:13;5.97;;;3.35;;
47053;SDS011;32811;52.382;5.270;2023-04-15T00:30:39;9.52;;;2.67;;
47053;SDS011;32811;52.382;5.270;2023-04-15T00:33:08;5.05;;;2.33;;
47053;SDS011;32811;52.382;5.270;2023-04-15T00:35:35;4.38;;;2.67;;
47053;SDS011;32811;52.382;5.270;2023-04-15T00:38:04;5.30;;;2.83;;
47053;SDS011;32811;52.382;5.270;2023-04-15T00:40:32;6.13;;;3.22;;
47053;SDS011;32811;52.382;5.270;2023-04-15T00:43:00;6.93;;;3.13;;
47053;SDS011;32811;52.382;5.270;2023-04-15T00:45:27;7.57;;;2.83;;
47053;SDS011;32811;52.382;5.270;2023-04-15T00:47:56;5.78;;;2.38;;
47053;SDS011;32811;52.382;5.270;2023-04-15T00:50:22;5.63;;;2.50;;
47053;SDS011;32811;52.382;5.270;2023-04-15T00:52:49;7.45;;;3.28;;
47053;SDS011;32811;52.382;5.270;2023-04-15T00:55:15;7.70;;;2.85;;
47053;SDS011;32811;52.382;5.270;2023-04-15T00:57:42;7.35;;;2.80;;
47053;SDS011;32811;52.382;5.270;2023-04-15T01:00:10;5.60;;;3.45;;
47053;SDS011;32811;52.382;5.270;2023-04-15T01:02:39;4.47;;;2.33;;
47053;SDS011;32811;52.382;5.270;2023-04-15T01:05:08;5.22;;;2.10;;
47053;SDS011;32811;52.382;5.270;2023-04-15T01:07:35;9.95;;;2.97;;
47053;SDS011;32811;52.382;5.270;2023-04-15T01:10:02;3.88;;;2.55;;
47053;SDS011;32811;52.382;5.270;2023-04-15T01:12:31;6.65;;;2.80;;
47053;SDS011;32811;52.382;5.270;2023-04-15T01:14:58;3.45;;;2.78;;
47053;SDS011;32811;52.382;5.270;2023-04-15T01:17:25;5.78;;;2.95;;
47053;SDS011;32811;52.382;5.270;2023-04-15T01:19:52;8.40;;;2.78;;
47053;SDS011;32811;52.382;5.270;2023-04-15T01:22:25;5.82;;;3.05;;
47053;SDS011;32811;52.382;5.270;2023-04-15T01:25:16;5.05;;;2.90;;
47053;SDS011;32811;52.382;5.270;2023-04-15T01:27:43;7.22;;;2.58;;
47053;SDS011;32811;52.382;5.270;2023-04-15T01:30:10;7.25;;;2.67;;
47053;SDS011;32811;52.382;5.270;2023-04-15T01:32:37;7.28;;;2.67;;
47053;SDS011;32811;52.382;5.270;2023-04-15T01:35:04;5.28;;;2.47;;
47053;SDS011;32811;52.382;5.270;2023-04-15T01:37:31;5.75;;;3.13;;
47053;SDS011;32811;52.382;5.270;2023-04-15T01:39:58;3.88;;;2.47;;
47053;SDS011;32811;52.382;5.270;2023-04-15T01:42:25;10.57;;;4.15;;
47053;SDS011;32811;52.382;5.270;2023-04-15T01:44:52;5.47;;;3.15;;
47053;SDS011;32811;52.382;5.270;2023-04-15T01:47:19;8.52;;;3.05;;
47053;SDS011;32811;52.382;5.270;2023-04-15T01:49:46;6.55;;;2.67;;
47053;SDS011;32811;52.382;5.270;2023-04-15T01:52:12;5.78;;;2.67;;
47053;SDS011;32811;52.382;5.270;2023-04-15T01:54:39;6.30;;;2.40;;
47053;SDS011;32811;52.382;5.270;2023-04-15T01:57:06;3.42;;;2.88;;
47053;SDS011;32811;52.382;5.270;2023-04-15T01:59:32;3.72;;;2.53;;
47053;SDS011;32811;52.382;5.270;2023-04-15T02:01:59;4.70;;;3.10;;
47053;SDS011;32811;52.382;5.270;2023-04-15T02:04:25;4.03;;;2.85;;
47053;SDS011;32811;52.382;5.270;2023-04-15T02:06:53;8.95;;;3.03;;
47053;SDS011;32811;52.382;5.270;2023-04-15T02:09:19;4.35;;;3.25;;
47053;SDS011;32811;52.382;5.270;2023-04-15T02:11:46;6.60;;;3.33;;
47053;SDS011;32811;52.382;5.270;2023-04-15T02:14:13;4.60;;;2.78;;
47053;SDS011;32811;52.382;5.270;2023-04-15T02:16:39;10.23;;;3.53;;
47053;SDS011;32811;52.382;5.270;2023-04-15T02:19:06;5.28;;;3.13;;
47053;SDS011;32811;52.382;5.270;2023-04-15T02:21:33;12.43;;;2.97;;
47053;SDS011;32811;52.382;5.270;2023-04-15T02:24:00;4.72;;;3.35;;
47053;SDS011;32811;52.382;5.270;2023-04-15T02:26:27;7.55;;;3.15;;
47053;SDS011;32811;52.382;5.270;2023-04-15T02:28:57;6.00;;;3.88;;
47053;SDS011;32811;52.382;5.270;2023-04-15T02:31:24;4.53;;;3.05;;
47053;SDS011;32811;52.382;5.270;2023-04-15T02:33:51;8.30;;;2.80;;
47053;SDS011;32811;52.382;5.270;2023-04-15T02:36:17;5.10;;;2.88;;
47053;SDS011;32811;52.382;5.270;2023-04-15T02:38:44;4.15;;;2.83;;
47053;SDS011;32811;52.382;5.270;2023-04-15T02:41:11;7.32;;;3.65;;
47053;SDS011;32811;52.382;5.270;2023-04-15T02:43:37;5.78;;;3.30;;
47053;SDS011;32811;52.382;5.270;2023-04-15T02:46:05;5.57;;;3.30;;
47053;SDS011;32811;52.382;5.270;2023-04-15T02:48:31;8.25;;;3.60;;
47053;SDS011;32811;52.382;5.270;2023-04-15T02:51:14;10.10;;;3.38;;
47053;SDS011;32811;52.382;5.270;2023-04-15T02:53:45;6.20;;;2.70;;
47053;SDS011;32811;52.382;5.270;2023-04-15T02:56:13;6.72;;;2.78;;
47053;SDS011;32811;52.382;5.270;2023-04-15T02:58:41;4.15;;;3.15;;
47053;SDS011;32811;52.382;5.270;2023-04-15T03:01:08;6.82;;;3.45;;
47053;SDS011;32811;52.382;5.270;2023-04-15T03:03:35;6.80;;;3.15;;
47053;SDS011;32811;52.382;5.270;2023-04-15T03:06:02;6.80;;;3.92;;
47053;SDS011;32811;52.382;5.270;2023-04-15T03:08:28;10.43;;;4.25;;
47053;SDS011;32811;52.382;5.270;2023-04-15T03:10:56;6.78;;;3.75;;
47053;SDS011;32811;52.382;5.270;2023-04-15T03:13:25;3.15;;;2.85;;
47053;SDS011;32811;52.382;5.270;2023-04-15T03:15:52;6.68;;;4.30;;
47053;SDS011;32811;52.382;5.270;2023-04-15T03:18:18;9.40;;;3.60;;
47053;SDS011;32811;52.382;5.270;2023-04-15T03:20:45;5.85;;;3.28;;
47053;SDS011;32811;52.382;5.270;2023-04-15T03:23:12;7.28;;;3.70;;
47053;SDS011;32811;52.382;5.270;2023-04-15T03:25:38;5.50;;;3.85;;
47053;SDS011;32811;52.382;5.270;2023-04-15T03:28:05;9.55;;;3.80;;
47053;SDS011;32811;52.382;5.270;2023-04-15T03:30:32;4.05;;;2.90;;
47053;SDS011;32811;52.382;5.270;2023-04-15T03:32:58;5.32;;;3.75;;
47053;SDS011;32811;52.382;5.270;2023-04-15T03:35:25;13.13;;;4.22;;
47053;SDS011;32811;52.382;5.270;2023-04-15T03:37:52;6.82;;;3.65;;
47053;SDS011;32811;52.382;5.270;2023-04-15T03:40:19;5.78;;;3.47;;
47053;SDS011;32811;52.382;5.270;2023-04-15T03:42:46;9.18;;;4.00;;
47053;SDS011;32811;52.382;5.270;2023-04-15T03:45:13;9.43;;;3.88;;
47053;SDS011;32811;52.382;5.270;2023-04-15T03:47:39;10.50;;;4.57;;
47053;SDS011;32811;52.382;5.270;2023-04-15T03:50:06;11.23;;;4.05;;
47053;SDS011;32811;52.382;5.270;2023-04-15T03:52:34;5.85;;;4.55;;
47053;SDS011;32811;52.382;5.270;2023-04-15T03:55:00;5.35;;;3.15;;
47053;SDS011;32811;52.382;5.270;2023-04-15T03:57:27;8.57;;;3.95;;
47053;SDS011;32811;52.382;5.270;2023-04-15T03:59:54;5.80;;;3.88;;
47053;SDS011;32811;52.382;5.270;2023-04-15T04:02:20;6.05;;;3.85;;
47053;SDS011;32811;52.382;5.270;2023-04-15T04:04:48;9.50;;;3.85;;
47053;SDS011;32811;52.382;5.270;2023-04-15T04:07:15;8.25;;;4.63;;
47053;SDS011;32811;52.382;5.270;2023-04-15T04:09:42;8.75;;;4.15;;
47053;SDS011;32811;52.382;5.270;2023-04-15T04:12:11;8.52;;;4.00;;
47053;SDS011;32811;52.382;5.270;2023-04-15T04:14:38;6.82;;;3.60;;
47053;SDS011;32811;52.382;5.270;2023-04-15T04:17:05;9.63;;;3.97;;
47053;SDS011;32811;52.382;5.270;2023-04-15T04:19:32;6.45;;;3.58;;
47053;SDS011;32811;52.382;5.270;2023-04-15T04:21:58;10.10;;;3.80;;
47053;SDS011;32811;52.382;5.270;2023-04-15T04:24:25;6.10;;;3.55;;
47053;SDS011;32811;52.382;5.270;2023-04-15T04:26:51;4.85;;;4.10;;
47053;SDS011;32811;52.382;5.270;2023-04-15T04:29:18;6.50;;;3.47;;
47053;SDS011;32811;52.382;5.270;2023-04-15T04:31:45;6.30;;;4.68;;
47053;SDS011;32811;52.382;5.270;2023-04-15T04:34:14;9.50;;;4.93;;
47053;SDS011;32811;52.382;5.270;2023-04-15T04:36:41;5.05;;;3.72;;
47053;SDS011;32811;52.382;5.270;2023-04-15T04:39:07;5.10;;;3.83;;
47053;SDS011;32811;52.382;5.270;2023-04-15T04:41:34;5.47;;;4.55;;
47053;SDS011;32811;52.382;5.270;2023-04-15T04:44:01;8.02;;;5.03;;
47053;SDS011;32811;52.382;5.270;2023-04-15T04:46:27;5.47;;;4.43;;
47053;SDS011;32811;52.382;5.270;2023-04-15T04:48:54;4.90;;;4.40;;
47053;SDS011;32811;52.382;5.270;2023-04-15T04:51:20;7.70;;;5.13;;
47053;SDS011;32811;52.382;5.270;2023-04-15T04:53:47;8.00;;;5.15;;
47053;SDS011;32811;52.382;5.270;2023-04-15T04:56:14;7.10;;;4.57;;
47053;SDS011;32811;52.382;5.270;2023-04-15T04:58:40;6.07;;;4.63;;
47053;SDS011;32811;52.382;5.270;2023-04-15T05:01:07;9.00;;;5.05;;
47053;SDS011;32811;52.382;5.270;2023-04-15T05:03:34;9.45;;;5.97;;
47053;SDS011;32811;52.382;5.270;2023-04-15T05:06:01;8.23;;;5.45;;
47053;SDS011;32811;52.382;5.270;2023-04-15T05:08:31;7.05;;;5.30;;
47053;SDS011;32811;52.382;5.270;2023-04-15T05:10:57;6.72;;;4.97;;
47053;SDS011;32811;52.382;5.270;2023-04-15T05:13:24;11.88;;;5.75;;
47053;SDS011;32811;52.382;5.270;2023-04-15T05:15:51;7.38;;;5.38;;
47053;SDS011;32811;52.382;5.270;2023-04-15T05:18:17;7.22;;;5.55;;
47053;SDS011;32811;52.382;5.270;2023-04-15T05:20:44;5.57;;;4.57;;
47053;SDS011;32811;52.382;5.270;2023-04-15T05:23:11;7.07;;;5.63;;
47053;SDS011;32811;52.382;5.270;2023-04-15T05:25:38;7.43;;;5.72;;
47053;SDS011;32811;52.382;5.270;2023-04-15T05:28:04;9.65;;;5.75;;
47053;SDS011;32811;52.382;5.270;2023-04-15T05:30:31;6.40;;;5.80;;
47053;SDS011;32811;52.382;5.270;2023-04-15T05:32:58;7.78;;;5.97;;
47053;SDS011;32811;52.382;5.270;2023-04-15T05:35:25;6.13;;;5.38;;
47053;SDS011;32811;52.382;5.270;2023-04-15T05:37:52;9.52;;;6.20;;
47053;SDS011;32811;52.382;5.270;2023-04-15T05:40:18;7.80;;;5.88;;
47053;SDS011;32811;52.382;5.270;2023-04-15T05:42:45;13.55;;;7.30;;
47053;SDS011;32811;52.382;5.270;2023-04-15T05:45:11;7.90;;;5.38;;
47053;SDS011;32811;52.382;5.270;2023-04-15T05:47:38;7.10;;;5.78;;
47053;SDS011;32811;52.382;5.270;2023-04-15T05:50:05;6.65;;;5.60;;
47053;SDS011;32811;52.382;5.270;2023-04-15T05:52:32;11.50;;;6.93;;
47053;SDS011;32811;52.382;5.270;2023-04-15T05:54:59;11.20;;;6.25;;
47053;SDS011;32811;52.382;5.270;2023-04-15T05:57:26;9.88;;;6.10;;
47053;SDS011;32811;52.382;5.270;2023-04-15T05:59:52;10.43;;;6.30;;
47053;SDS011;32811;52.382;5.270;2023-04-15T06:02:19;10.18;;;5.82;;
47053;SDS011;32811;52.382;5.270;2023-04-15T06:04:46;8.55;;;6.15;;
47053;SDS011;32811;52.382;5.270;2023-04-15T06:07:13;8.02;;;6.72;;
47053;SDS011;32811;52.382;5.270;2023-04-15T06:09:39;8.32;;;5.82;;
47053;SDS011;32811;52.382;5.270;2023-04-15T06:12:06;8.50;;;5.85;;
47053;SDS011;32811;52.382;5.270;2023-04-15T06:14:37;8.70;;;6.53;;
47053;SDS011;32811;52.382;5.270;2023-04-15T06:17:04;13.70;;;5.88;;
47053;SDS011;32811;52.382;5.270;2023-04-15T06:19:31;10.70;;;6.82;;
47053;SDS011;32811;52.382;5.270;2023-04-15T06:21:58;6.75;;;5.88;;
47053;SDS011;32811;52.382;5.270;2023-04-15T06:24:25;7.60;;;6.07;;
47053;SDS011;32811;52.382;5.270;2023-04-15T06:26:51;8.45;;;5.70;;
47053;SDS011;32811;52.382;5.270;2023-04-15T06:29:18;8.90;;;6.45;;
47053;SDS011;32811;52.382;5.270;2023-04-15T06:31:46;6.57;;;5.88;;
47053;SDS011;32811;52.382;5.270;2023-04-15T06:34:13;8.75;;;5.93;;
47053;SDS011;32811;52.382;5.270;2023-04-15T06:36:39;7.75;;;5.57;;
47053;SDS011;32811;52.382;5.270;2023-04-15T06:39:06;7.15;;;5.32;;
47053;SDS011;32811;52.382;5.270;2023-04-15T06:41:33;9.00;;;6.50;;
47053;SDS011;32811;52.382;5.270;2023-04-15T06:44:00;7.47;;;5.43;;
47053;SDS011;32811;52.382;5.270;2023-04-15T06:46:27;7.35;;;5.50;;
47053;SDS011;32811;52.382;5.270;2023-04-15T06:48:53;7.75;;;5.90;;
47053;SDS011;32811;52.382;5.270;2023-04-15T06:51:20;8.10;;;6.72;;
47053;SDS011;32811;52.382;5.270;2023-04-15T06:53:47;7.78;;;6.38;;
47053;SDS011;32811;52.382;5.270;2023-04-15T06:56:14;9.32;;;6.28;;
47053;SDS011;32811;52.382;5.270;2023-04-15T06:58:41;7.18;;;6.18;;
47053;SDS011;32811;52.382;5.270;2023-04-15T07:01:07;8.40;;;5.72;;
47053;SDS011;32811;52.382;5.270;2023-04-15T07:03:34;9.10;;;6.07;;
47053;SDS011;32811;52.382;5.270;2023-04-15T07:06:00;7.55;;;6.07;;
47053;SDS011;32811;52.382;5.270;2023-04-15T07:08:32;8.15;;;6.05;;
47053;SDS011;32811;52.382;5.270;2023-04-15T07:10:59;8.82;;;5.60;;
47053;SDS011;32811;52.382;5.270;2023-04-15T07:13:26;8.18;;;5.78;;
47053;SDS011;32811;52.382;5.270;2023-04-15T07:15:53;10.23;;;5.72;;
47053;SDS011;32811;52.382;5.270;2023-04-15T07:18:19;7.97;;;4.72;;
47053;SDS011;32811;52.382;5.270;2023-04-15T07:20:46;8.05;;;5.70;;
47053;SDS011;32811;52.382;5.270;2023-04-15T07:23:13;5.65;;;4.97;;
47053;SDS011;32811;52.382;5.270;2023-04-15T07:25:39;6.38;;;4.85;;
47053;SDS011;32811;52.382;5.270;2023-04-15T07:28:06;5.20;;;4.40;;
47053;SDS011;32811;52.382;5.270;2023-04-15T07:30:32;6.72;;;5.45;;
47053;SDS011;32811;52.382;5.270;2023-04-15T07:33:00;6.30;;;4.07;;
47053;SDS011;32811;52.382;5.270;2023-04-15T07:35:27;5.18;;;3.67;;
47053;SDS011;32811;52.382;5.270;2023-04-15T07:37:54;4.72;;;3.45;;
47053;SDS011;32811;52.382;5.270;2023-04-15T07:40:21;6.78;;;3.33;;
47053;SDS011;32811;52.382;5.270;2023-04-15T07:42:48;4.82;;;3.22;;
47053;SDS011;32811;52.382;5.270;2023-04-15T07:45:15;4.20;;;2.80;;
47053;SDS011;32811;52.382;5.270;2023-04-15T07:47:42;4.03;;;3.10;;
47053;SDS011;32811;52.382;5.270;2023-04-15T07:50:08;5.40;;;2.72;;
47053;SDS011;32811;52.382;5.270;2023-04-15T07:52:36;3.50;;;2.80;;
47053;SDS011;32811;52.382;5.270;2023-04-15T07:55:06;5.10;;;3.60;;
47053;SDS011;32811;52.382;5.270;2023-04-15T07:57:34;10.57;;;5.13;;
47053;SDS011;32811;52.382;5.270;2023-04-15T08:00:01;3.47;;;2.95;;
47053;SDS011;32811;52.382;5.270;2023-04-15T08:02:30;3.38;;;2.70;;
47053;SDS011;32811;52.382;5.270;2023-04-15T08:04:58;5.15;;;2.97;;
47053;SDS011;32811;52.382;5.270;2023-04-15T08:07:25;5.55;;;3.75;;
47053;SDS011;32811;52.382;5.270;2023-04-15T08:09:51;6.93;;;3.50;;
47053;SDS011;32811;52.382;5.270;2023-04-15T08:12:18;6.07;;;3.72;;
47053;SDS011;32811;52.382;5.270;2023-04-15T08:14:44;5.00;;;3.47;;
47053;SDS011;32811;52.382;5.270;2023-04-15T08:17:12;6.63;;;4.22;;
47053;SDS011;32811;52.382;5.270;2023-04-15T08:19:39;7.97;;;5.28;;
47053;SDS011;32811;52.382;5.270;2023-04-15T08:22:06;7.43;;;4.32;;
47053;SDS011;32811;52.382;5.270;2023-04-15T08:24:41;9.23;;;5.25;;
47053;SDS011;32811;52.382;5.270;2023-04-15T08:27:07;9.32;;;5.10;;
47053;SDS011;32811;52.382;5.270;2023-04-15T08:29:34;9.30;;;4.88;;
47053;SDS011;32811;52.382;5.270;2023-04-15T08:32:01;6.57;;;4.00;;
47053;SDS011;32811;52.382;5.270;2023-04-15T08:34:28;7.07;;;3.92;;
47053;SDS011;32811;52.382;5.270;2023-04-15T08:36:55;6.75;;;4.32;;
47053;SDS011;32811;52.382;5.270;2023-04-15T08:39:22;5.47;;;2.88;;
47053;SDS011;32811;52.382;5.270;2023-04-15T08:44:21;4.82;;;2.90;;
47053;SDS011;32811;52.382;5.270;2023-04-15T08:46:49;13.73;;;3.70;;
47053;SDS011;32811;52.382;5.270;2023-04-15T08:49:17;3.38;;;2.25;;
47053;SDS011;32811;52.382;5.270;2023-04-15T08:51:44;2.55;;;1.80;;
47053;SDS011;32811;52.382;5.270;2023-04-15T08:54:11;2.38;;;1.60;;
47053;SDS011;32811;52.382;5.270;2023-04-15T08:56:38;4.22;;;2.45;;
47053;SDS011;32811;52.382;5.270;2023-04-15T08:59:05;3.20;;;2.15;;
47053;SDS011;32811;52.382;5.270;2023-04-15T09:01:32;2.88;;;2.55;;
47053;SDS011;32811;52.382;5.270;2023-04-15T09:03:59;2.35;;;2.15;;
47053;SDS011;32811;52.382;5.270;2023-04-15T09:06:28;5.05;;;2.40;;
47053;SDS011;32811;52.382;5.270;2023-04-15T09:08:55;3.33;;;2.55;;
47053;SDS011;32811;52.382;5.270;2023-04-15T09:11:21;3.40;;;2.40;;
47053;SDS011;32811;52.382;5.270;2023-04-15T09:13:48;3.92;;;2.80;;
47053;SDS011;32811;52.382;5.270;2023-04-15T09:16:15;5.82;;;2.97;;
47053;SDS011;32811;52.382;5.270;2023-04-15T09:18:41;4.03;;;2.88;;
47053;SDS011;32811;52.382;5.270;2023-04-15T09:21:09;5.70;;;2.30;;
47053;SDS011;32811;52.382;5.270;2023-04-15T09:23:37;2.90;;;2.35;;
47053;SDS011;32811;52.382;5.270;2023-04-15T09:26:06;6.63;;;3.58;;
47053;SDS011;32811;52.382;5.270;2023-04-15T09:28:32;9.82;;;2.83;;
47053;SDS011;32811;52.382;5.270;2023-04-15T09:31:07;3.42;;;2.97;;
47053;SDS011;32811;52.382;5.270;2023-04-15T09:33:35;4.70;;;3.40;;
47053;SDS011;32811;52.382;5.270;2023-04-15T09:36:20;4.97;;;2.63;;
47053;SDS011;32811;52.382;5.270;2023-04-15T09:38:53;5.60;;;3.65;;
47053;SDS011;32811;52.382;5.270;2023-04-15T09:41:24;6.57;;;3.53;;
47053;SDS011;32811;52.382;5.270;2023-04-15T09:43:51;4.70;;;3.35;;
47053;SDS011;32811;52.382;5.270;2023-04-15T09:46:18;4.50;;;2.95;;
47053;SDS011;32811;52.382;5.270;2023-04-15T09:48:45;5.00;;;3.05;;
47053;SDS011;32811;52.382;5.270;2023-04-15T09:51:12;5.65;;;3.65;;
47053;SDS011;32811;52.382;5.270;2023-04-15T09:53:39;3.88;;;3.38;;
47053;SDS011;32811;52.382;5.270;2023-04-15T09:56:06;5.40;;;3.90;;
47053;SDS011;32811;52.382;5.270;2023-04-15T09:58:34;6.93;;;4.15;;
47053;SDS011;32811;52.382;5.270;2023-04-15T10:01:04;7.72;;;4.80;;
47053;SDS011;32811;52.382;5.270;2023-04-15T10:03:32;6.55;;;4.70;;
47053;SDS011;32811;52.382;5.270;2023-04-15T10:06:02;4.57;;;3.72;;
47053;SDS011;32811;52.382;5.270;2023-04-15T10:08:31;6.20;;;4.10;;
47053;SDS011;32811;52.382;5.270;2023-04-15T10:11:02;4.57;;;3.80;;
47053;SDS011;32811;52.382;5.270;2023-04-15T10:13:30;5.60;;;4.55;;
47053;SDS011;32811;52.382;5.270;2023-04-15T10:16:06;6.57;;;3.95;;
47053;SDS011;32811;52.382;5.270;2023-04-15T10:18:40;7.18;;;4.55;;
47053;SDS011;32811;52.382;5.270;2023-04-15T10:21:09;4.95;;;3.90;;
47053;SDS011;32811;52.382;5.270;2023-04-15T10:23:36;7.38;;;4.70;;
47053;SDS011;32811;52.382;5.270;2023-04-15T10:26:03;8.88;;;4.28;;
47053;SDS011;32811;52.382;5.270;2023-04-15T10:28:31;7.15;;;5.50;;
47053;SDS011;32811;52.382;5.270;2023-04-15T10:30:57;7.90;;;4.75;;
47053;SDS011;32811;52.382;5.270;2023-04-15T10:33:25;6.05;;;4.20;;
47053;SDS011;32811;52.382;5.270;2023-04-15T10:35:53;5.78;;;3.53;;
47053;SDS011;32811;52.382;5.270;2023-04-15T10:41:16;6.43;;;3.53;;
47053;SDS011;32811;52.382;5.270;2023-04-15T10:43:48;4.97;;;2.78;;
47053;SDS011;32811;52.382;5.270;2023-04-15T10:46:50;2.35;;;1.35;;
47053;SDS011;32811;52.382;5.270;2023-04-15T10:49:11;8.90;;;1.30;;
47053;SDS011;32811;52.382;5.270;2023-04-15T10:51:40;1.92;;;1.02;;
47053;SDS011;32811;52.382;5.270;2023-04-15T10:54:17;1.92;;;1.33;;
47053;SDS011;32811;52.382;5.270;2023-04-15T10:59:28;3.05;;;1.65;;
47053;SDS011;32811;52.382;5.270;2023-04-15T11:02:00;5.45;;;1.50;;
47053;SDS011;32811;52.382;5.270;2023-04-15T11:17:56;3.28;;;1.65;;
47053;SDS011;32811;52.382;5.270;2023-04-15T11:20:23;7.25;;;2.05;;
47053;SDS011;32811;52.382;5.270;2023-04-15T11:22:51;3.90;;;1.30;;
47053;SDS011;32811;52.382;5.270;2023-04-15T11:25:39;4.40;;;1.85;;
47053;SDS011;32811;52.382;5.270;2023-04-15T11:28:06;2.22;;;1.70;;
47053;SDS011;32811;52.382;5.270;2023-04-15T11:30:35;1.90;;;1.55;;
47053;SDS011;32811;52.382;5.270;2023-04-15T11:33:04;1.95;;;1.17;;
47053;SDS011;32811;52.382;5.270;2023-04-15T11:35:32;3.97;;;1.52;;
47053;SDS011;32811;52.382;5.270;2023-04-15T11:38:01;2.33;;;1.05;;
47053;SDS011;32811;52.382;5.270;2023-04-15T11:40:29;3.10;;;1.75;;
47053;SDS011;32811;52.382;5.270;2023-04-15T11:45:58;2.30;;;1.20;;
47053;SDS011;32811;52.382;5.270;2023-04-15T11:48:33;5.63;;;1.30;;
47053;SDS011;32811;52.382;5.270;2023-04-15T11:51:01;2.67;;;1.20;;
47053;SDS011;32811;52.382;5.270;2023-04-15T11:53:45;5.75;;;1.35;;
47053;SDS011;32811;52.382;5.270;2023-04-15T11:56:17;4.10;;;1.40;;
47053;SDS011;32811;52.382;5.270;2023-04-15T11:58:46;6.20;;;2.28;;
47053;SDS011;32811;52.382;5.270;2023-04-15T12:01:15;2.70;;;1.20;;
47053;SDS011;32811;52.382;5.270;2023-04-15T12:03:44;1.60;;;0.90;;
47053;SDS011;32811;52.382;5.270;2023-04-15T12:06:14;2.55;;;1.40;;
47053;SDS011;32811;52.382;5.270;2023-04-15T12:11:26;2.70;;;1.27;;
47053;SDS011;32811;52.382;5.270;2023-04-15T12:13:56;3.28;;;1.70;;
47053;SDS011;32811;52.382;5.270;2023-04-15T12:16:26;4.20;;;1.30;;
47053;SDS011;32811;52.382;5.270;2023-04-15T12:18:55;4.20;;;1.50;;
47053;SDS011;32811;52.382;5.270;2023-04-15T12:21:24;3.08;;;1.63;;
47053;SDS011;32811;52.382;5.270;2023-04-15T12:23:53;4.07;;;1.33;;
47053;SDS011;32811;52.382;5.270;2023-04-15T12:26:25;2.50;;;1.30;;
47053;SDS011;32811;52.382;5.270;2023-04-15T12:28:54;2.10;;;1.48;;
47053;SDS011;32811;52.382;5.270;2023-04-15T12:31:22;2.80;;;1.20;;
47053;SDS011;32811;52.382;5.270;2023-04-15T12:33:49;5.05;;;1.63;;
47053;SDS011;32811;52.382;5.270;2023-04-15T12:36:16;4.90;;;1.30;;
47053;SDS011;32811;52.382;5.270;2023-04-15T12:38:42;3.08;;;1.30;;
47053;SDS011;32811;52.382;5.270;2023-04-15T12:41:09;1.48;;;1.15;;
47053;SDS011;32811;52.382;5.270;2023-04-15T12:43:35;2.50;;;1.10;;
47053;SDS011;32811;52.382;5.270;2023-04-15T12:46:02;3.25;;;1.38;;
47053;SDS011;32811;52.382;5.270;2023-04-15T12:48:30;3.38;;;0.85;;
47053;SDS011;32811;52.382;5.270;2023-04-15T12:50:56;3.92;;;1.23;;
47053;SDS011;32811;52.382;5.270;2023-04-15T12:53:23;3.30;;;1.10;;
47053;SDS011;32811;52.382;5.270;2023-04-15T12:55:49;2.85;;;0.85;;
47053;SDS011;32811;52.382;5.270;2023-04-15T12:58:16;3.35;;;1.23;;
47053;SDS011;32811;52.382;5.270;2023-04-15T13:00:43;5.53;;;2.50;;
47053;SDS011;32811;52.382;5.270;2023-04-15T13:03:10;3.20;;;0.80;;
47053;SDS011;32811;52.382;5.270;2023-04-15T13:05:37;6.10;;;0.82;;
47053;SDS011;32811;52.382;5.270;2023-04-15T13:08:05;5.55;;;1.02;;
47053;SDS011;32811;52.382;5.270;2023-04-15T13:10:32;4.57;;;2.30;;
47053;SDS011;32811;52.382;5.270;2023-04-15T13:13:01;1.98;;;0.68;;
47053;SDS011;32811;52.382;5.270;2023-04-15T13:15:28;2.92;;;0.70;;
47053;SDS011;32811;52.382;5.270;2023-04-15T13:17:55;3.83;;;0.88;;
47053;SDS011;32811;52.382;5.270;2023-04-15T13:20:22;3.97;;;0.75;;
47053;SDS011;32811;52.382;5.270;2023-04-15T13:22:48;2.28;;;0.40;;
47053;SDS011;32811;52.382;5.270;2023-04-15T13:25:15;2.88;;;0.60;;
47053;SDS011;32811;52.382;5.270;2023-04-15T13:27:42;6.35;;;1.20;;
47053;SDS011;32811;52.382;5.270;2023-04-15T13:30:09;3.65;;;0.47;;
47053;SDS011;32811;52.382;5.270;2023-04-15T13:32:35;2.05;;;0.63;;
47053;SDS011;32811;52.382;5.270;2023-04-15T13:35:02;3.35;;;0.80;;
47053;SDS011;32811;52.382;5.270;2023-04-15T13:37:30;1.73;;;0.57;;
47053;SDS011;32811;52.382;5.270;2023-04-15T13:39:56;3.13;;;0.70;;
47053;SDS011;32811;52.382;5.270;2023-04-15T13:42:23;5.70;;;1.15;;
47053;SDS011;32811;52.382;5.270;2023-04-15T13:44:50;6.43;;;0.90;;
47053;SDS011;32811;52.382;5.270;2023-04-15T13:47:17;5.95;;;0.80;;
47053;SDS011;32811;52.382;5.270;2023-04-15T13:49:45;3.38;;;0.75;;
47053;SDS011;32811;52.382;5.270;2023-04-15T13:52:12;3.90;;;0.70;;
47053;SDS011;32811;52.382;5.270;2023-04-15T13:54:38;3.15;;;0.60;;
47053;SDS011;32811;52.382;5.270;2023-04-15T13:57:05;2.83;;;0.73;;
47053;SDS011;32811;52.382;5.270;2023-04-15T13:59:32;5.82;;;1.00;;
47053;SDS011;32811;52.382;5.270;2023-04-15T14:02:00;6.40;;;0.60;;
47053;SDS011;32811;52.382;5.270;2023-04-15T14:04:27;2.63;;;0.85;;
47053;SDS011;32811;52.382;5.270;2023-04-15T14:06:53;2.58;;;0.40;;
47053;SDS011;32811;52.382;5.270;2023-04-15T14:09:21;3.53;;;0.93;;
47053;SDS011;32811;52.382;5.270;2023-04-15T14:11:51;4.80;;;1.38;;
47053;SDS011;32811;52.382;5.270;2023-04-15T14:14:18;2.92;;;0.70;;
47053;SDS011;32811;52.382;5.270;2023-04-15T14:16:45;2.58;;;0.68;;
47053;SDS011;32811;52.382;5.270;2023-04-15T14:19:11;2.67;;;0.80;;
47053;SDS011;32811;52.382;5.270;2023-04-15T14:21:38;3.38;;;0.50;;
47053;SDS011;32811;52.382;5.270;2023-04-15T14:24:04;5.80;;;0.75;;
47053;SDS011;32811;52.382;5.270;2023-04-15T14:26:31;7.22;;;1.15;;
47053;SDS011;32811;52.382;5.270;2023-04-15T14:28:58;1.52;;;0.50;;
47053;SDS011;32811;52.382;5.270;2023-04-15T14:31:25;5.93;;;0.50;;
47053;SDS011;32811;52.382;5.270;2023-04-15T14:33:52;3.38;;;0.47;;
47053;SDS011;32811;52.382;5.270;2023-04-15T14:36:20;3.90;;;0.55;;
47053;SDS011;32811;52.382;5.270;2023-04-15T14:38:47;3.50;;;1.58;;
47053;SDS011;32811;52.382;5.270;2023-04-15T14:41:16;5.30;;;0.85;;
47053;SDS011;32811;52.382;5.270;2023-04-15T14:43:42;4.00;;;1.23;;
47053;SDS011;32811;52.382;5.270;2023-04-15T14:46:09;4.60;;;1.55;;
47053;SDS011;32811;52.382;5.270;2023-04-15T14:48:36;6.22;;;0.95;;
47053;SDS011;32811;52.382;5.270;2023-04-15T14:51:03;5.75;;;1.77;;
47053;SDS011;32811;52.382;5.270;2023-04-15T14:53:29;6.88;;;0.95;;
47053;SDS011;32811;52.382;5.270;2023-04-15T14:55:56;4.43;;;0.47;;
47053;SDS011;32811;52.382;5.270;2023-04-15T14:58:23;5.50;;;0.60;;
47053;SDS011;32811;52.382;5.270;2023-04-15T15:00:49;4.15;;;0.68;;
47053;SDS011;32811;52.382;5.270;2023-04-15T15:03:16;9.35;;;0.82;;
47053;SDS011;32811;52.382;5.270;2023-04-15T15:05:44;10.95;;;1.65;;
47053;SDS011;32811;52.382;5.270;2023-04-15T15:08:12;5.35;;;0.70;;
47053;SDS011;32811;52.382;5.270;2023-04-15T15:10:39;6.10;;;1.20;;
47053;SDS011;32811;52.382;5.270;2023-04-15T15:13:13;5.53;;;0.88;;
47053;SDS011;32811;52.382;5.270;2023-04-15T15:15:40;7.00;;;0.68;;
47053;SDS011;32811;52.382;5.270;2023-04-15T15:18:07;8.88;;;0.68;;